Time;durP1;ratioP1;P1;durP2;ratioP2;P2;SDS_P1;SDS_P2;PMS_P1;PMS_P2;Temp;Humidity;BMP_temperature;BMP_pressure;BME280_temperature;BME280_humidity;BME280_pressure;Samples;Min_cycle;Max_cycle;Signal;HPM_P1;HPM_P2
2023/08/19 00:00:14;;;;;;;27.90;20.48;;;;;;;-146.27;95.54;80151.03;5027891;28;20474;-73
2023/08/19 00:02:41;;;;;;;31.63;19.98;;;;;;;-146.27;95.31;80195.19;5027148;28;20056;-72
2023/08/19 00:05:07;;;;;;;26.52;20.15;;;;;;;-146.27;95.58;80159.06;5026704;28;20104;-71
2023/08/19 00:07:32;;;;;;;29.60;20.63;;;;;;;-146.27;95.94;80209.25;5028098;28;20096;-72
2023/08/19 00:09:57;;;;;;;26.05;19.95;;;;;;;-146.27;95.85;80201.22;5024805;28;20033;-72
2023/08/19 00:12:23;;;;;;;23.70;19.85;;;;;;;-146.27;96.09;80181.13;5022278;28;20464;-71
2023/08/19 00:14:49;;;;;;;30.35;20.90;;;;;;;-146.27;96.10;80207.22;5028264;28;20060;-73
2023/08/19 00:17:16;;;;;;;28.23;19.95;;;;;;;-146.27;96.09;80207.22;5028183;28;20100;-73
2023/08/19 00:19:41;;;;;;;28.08;21.20;;;;;;;-146.27;95.97;80201.22;5026844;28;20021;-72
2023/08/19 00:22:07;;;;;;;25.58;20.55;;;;;;;-146.27;96.26;80187.16;5026884;28;20021;-71
2023/08/19 00:24:32;;;;;;;26.90;19.48;;;;;;;-146.27;96.03;80195.19;5028657;28;20558;-72
2023/08/19 00:26:59;;;;;;;27.63;22.58;;;;;;;-146.27;96.09;80179.13;5025083;28;20039;-72
2023/08/19 00:29:25;;;;;;;27.73;20.90;;;;;;;-146.27;96.02;80187.16;5027406;28;20489;-73
2023/08/19 00:31:50;;;;;;;27.67;22.23;;;;;;;-146.27;96.01;80181.13;5027418;28;20025;-71
2023/08/19 00:34:16;;;;;;;28.38;21.67;;;;;;;-146.27;95.96;80233.34;5026669;28;20070;-72
2023/08/19 00:36:41;;;;;;;35.60;21.67;;;;;;;-146.27;96.26;80163.06;5027347;28;20067;-72
2023/08/19 00:39:06;;;;;;;29.70;22.27;;;;;;;-146.27;95.88;80157.03;5028296;28;20021;-72
2023/08/19 00:41:33;;;;;;;27.48;21.00;;;;;;;-146.27;96.17;80163.06;5025932;28;20057;-71
2023/08/19 00:43:58;;;;;;;24.92;19.65;;;;;;;-146.27;95.95;80138.97;5027642;28;20503;-71
2023/08/19 00:46:25;;;;;;;30.90;22.48;;;;;;;-146.27;96.00;80191.16;5026007;28;20049;-71
2023/08/19 00:48:50;;;;;;;26.70;20.88;;;;;;;-146.27;96.04;80179.13;5028337;28;20037;-72
2023/08/19 00:51:17;;;;;;;26.85;21.35;;;;;;;-146.27;95.89;80145.00;5026877;28;20048;-72
2023/08/19 00:53:43;;;;;;;28.67;22.17;;;;;;;-146.27;96.09;80122.91;5027689;28;20032;-71
2023/08/19 00:56:09;;;;;;;30.27;22.17;;;;;;;-146.27;95.77;80233.34;5028455;28;20047;-69
2023/08/19 00:58:34;;;;;;;25.70;21.08;;;;;;;-146.27;95.92;80138.97;5026452;28;20105;-72
2023/08/19 01:01:00;;;;;;;27.60;21.50;;;;;;;-146.27;95.93;80126.94;5023535;28;20027;-71
2023/08/19 01:03:25;;;;;;;35.08;22.63;;;;;;;-146.27;95.74;80120.91;5026198;28;20382;-71
2023/08/19 01:06:12;;;;;;;29.98;22.17;;;;;;;-146.27;95.84;80126.94;5027745;28;20029;-70
2023/08/19 01:08:43;;;;;;;31.90;22.77;;;;;;;-146.27;96.04;80110.88;5026401;28;20087;-71
2023/08/19 01:11:24;;;;;;;29.60;21.80;;;;;;;-146.27;96.04;80134.97;5025771;28;20057;-72
2023/08/19 01:14:22;;;;;;;27.42;21.88;;;;;;;-146.27;95.97;80171.09;5027415;28;20040;-71
2023/08/19 01:16:52;;;;;;;29.38;22.00;;;;;;;-146.27;95.93;80140.97;5024979;28;20057;-70
2023/08/19 01:19:39;;;;;;;27.92;22.35;;;;;;;-146.27;95.79;80118.91;5025894;28;20029;-71
2023/08/19 01:22:07;;;;;;;31.55;23.50;;;;;;;-146.27;95.73;80143.00;5026774;28;20072;-70
2023/08/19 01:24:40;;;;;;;29.52;22.35;;;;;;;-146.27;95.93;80098.81;5026770;28;20060;-71
2023/08/19 01:27:06;;;;;;;31.23;22.52;;;;;;;-146.27;95.85;80130.94;5026363;28;20393;-71
2023/08/19 01:29:33;;;;;;;32.17;23.02;;;;;;;-146.27;95.91;80138.97;5028225;28;20033;-72
2023/08/19 01:31:59;;;;;;;32.45;22.88;;;;;;;-146.27;95.94;80140.97;5032236;28;20025;-72
2023/08/19 01:34:25;;;;;;;32.30;20.75;;;;;;;-146.27;96.12;80132.94;5032620;28;20056;-71
2023/08/19 01:37:01;;;;;;;37.00;22.45;;;;;;;-146.27;95.99;80169.09;5022861;28;20032;-71
2023/08/19 01:39:28;;;;;;;29.15;22.00;;;;;;;-146.27;96.18;80147.00;5030935;28;20108;-71
2023/08/19 01:41:54;;;;;;;29.08;20.48;;;;;;;-146.27;95.96;80151.03;5028533;28;20026;-72
2023/08/19 01:44:21;;;;;;;30.08;22.40;;;;;;;-146.27;95.74;80134.97;5030033;28;20033;-72
2023/08/19 01:46:46;;;;;;;29.98;22.35;;;;;;;-146.27;95.82;80143.00;5029969;28;20029;-72
2023/08/19 01:49:11;;;;;;;28.67;20.48;;;;;;;-146.27;95.54;80116.88;5030929;28;20592;-72
2023/08/19 01:51:37;;;;;;;27.20;22.13;;;;;;;-146.27;95.46;80138.97;5029234;28;20053;-73
2023/08/19 01:54:02;;;;;;;34.08;23.00;;;;;;;-146.27;95.73;80159.06;5031333;28;20025;-72
2023/08/19 01:56:28;;;;;;;27.90;21.05;;;;;;;-146.27;95.45;80106.84;5028615;28;20560;-72
2023/08/19 01:58:54;;;;;;;28.80;22.63;;;;;;;-146.27;95.42;80122.91;5027543;28;20408;-72
2023/08/19 02:01:19;;;;;;;34.10;23.95;;;;;;;-146.27;95.34;80149.00;5027927;28;20091;-72
2023/08/19 02:03:44;;;;;;;30.17;22.63;;;;;;;-146.27;95.66;80151.03;5030925;28;20481;-72
2023/08/19 02:06:10;;;;;;;31.20;23.70;;;;;;;-146.27;96.04;80163.06;5031563;28;20021;-72
2023/08/19 02:08:35;;;;;;;29.80;22.42;;;;;;;-146.27;95.86;80110.88;5030860;28;20044;-72
2023/08/19 02:11:00;;;;;;;31.42;22.15;;;;;;;-146.27;95.79;80155.03;5030293;28;20099;-72
2023/08/19 02:13:26;;;;;;;32.28;21.85;;;;;;;-146.27;95.77;80112.88;5028095;28;20018;-71
2023/08/19 02:15:51;;;;;;;32.80;24.10;;;;;;;-146.27;96.13;80191.16;5028682;28;20053;-72
2023/08/19 02:18:18;;;;;;;27.98;20.73;;;;;;;-146.27;96.14;80171.09;5027542;28;20056;-72
2023/08/19 02:20:47;;;;;;;28.30;20.98;;;;;;;-146.27;96.27;80195.19;5029189;28;20923;-72
2023/08/19 02:23:12;;;;;;;34.10;24.58;;;;;;;-146.27;96.24;80175.13;5030686;28;20045;-71
2023/08/19 02:25:38;;;;;;;36.20;24.17;;;;;;;-146.27;96.55;80159.06;5027002;28;20736;-72
2023/08/19 02:28:03;;;;;;;34.80;24.40;;;;;;;-146.27;96.49;80183.13;5029189;28;20088;-72
2023/08/19 02:30:31;;;;;;;29.92;22.30;;;;;;;-146.27;96.46;80191.16;5029206;28;20030;-72
2023/08/19 02:32:56;;;;;;;32.53;23.15;;;;;;;-146.27;96.24;80177.13;5029866;28;20569;-73
2023/08/19 02:35:22;;;;;;;30.77;23.40;;;;;;;-146.27;96.43;80124.91;5029229;28;20104;-72
2023/08/19 02:37:47;;;;;;;31.83;21.85;;;;;;;-146.27;96.41;80171.09;5030018;28;20124;-72
2023/08/19 02:40:12;;;;;;;33.20;23.63;;;;;;;-146.27;96.29;80167.09;5029813;28;20033;-72
2023/08/19 02:42:38;;;;;;;33.00;22.17;;;;;;;-146.27;96.14;80128.94;5028867;28;20071;-73
2023/08/19 02:45:04;;;;;;;26.05;20.40;;;;;;;-146.27;96.12;80183.13;5030330;28;20520;-72
2023/08/19 02:47:29;;;;;;;29.77;22.15;;;;;;;-146.27;96.55;80167.09;5028843;28;20052;-72
2023/08/19 02:49:54;;;;;;;34.03;22.77;;;;;;;-146.27;96.41;80199.22;5029154;28;20025;-72
2023/08/19 02:52:20;;;;;;;34.47;22.88;;;;;;;-146.27;96.49;80149.00;5028551;28;20041;-72
2023/08/19 02:54:45;;;;;;;35.92;24.15;;;;;;;-146.27;96.67;80155.03;5028565;28;20022;-72
2023/08/19 02:57:10;;;;;;;33.33;24.15;;;;;;;-146.27;97.13;80203.22;5027734;28;20075;-72
2023/08/19 02:59:36;;;;;;;29.48;23.10;;;;;;;-146.27;97.32;80247.38;5027853;28;20069;-73
2023/08/19 03:02:01;;;;;;;29.30;23.52;;;;;;;-146.27;97.18;80207.22;5028659;28;20072;-72
2023/08/19 03:04:26;;;;;;;32.15;23.73;;;;;;;-146.27;97.60;80207.22;5029107;28;20025;-72
2023/08/19 03:06:52;;;;;;;29.20;23.02;;;;;;;-146.27;97.54;80193.19;5030350;28;20126;-73
2023/08/19 03:09:18;;;;;;;32.13;23.33;;;;;;;-146.27;97.68;80217.28;5028788;28;20029;-73
2023/08/19 03:11:44;;;;;;;33.28;22.98;;;;;;;-146.27;97.65;80207.22;5028003;28;20422;-73
2023/08/19 03:14:09;;;;;;;28.90;22.45;;;;;;;-146.27;97.86;80223.28;5029663;28;20114;-72
2023/08/19 03:16:34;;;;;;;37.22;25.83;;;;;;;-146.27;97.96;80239.34;5028369;28;20377;-72
2023/08/19 03:19:00;;;;;;;35.13;25.75;;;;;;;-146.27;97.99;80239.34;5029492;28;20033;-72
2023/08/19 03:21:25;;;;;;;31.27;23.92;;;;;;;-146.27;98.07;80239.34;5028770;28;20109;-72
2023/08/19 03:23:51;;;;;;;32.47;23.90;;;;;;;-146.27;98.15;80231.31;5029347;28;20053;-73
2023/08/19 03:26:16;;;;;;;37.08;25.15;;;;;;;-146.27;98.58;80285.53;5029023;28;20029;-72
2023/08/19 03:28:41;;;;;;;33.03;24.33;;;;;;;-146.27;98.60;80259.44;5029868;28;20082;-73
2023/08/19 03:31:08;;;;;;;36.78;22.60;;;;;;;-146.27;98.53;80273.50;5029064;28;20486;-71
2023/08/19 03:33:34;;;;;;;28.25;20.70;;;;;;;-146.27;98.15;80243.38;5028425;28;20044;-72
2023/08/19 03:36:00;;;;;;;29.63;21.30;;;;;;;-146.27;98.04;80205.22;5029785;28;20033;-72
2023/08/19 03:38:26;;;;;;;26.38;20.52;;;;;;;-146.27;97.42;80209.25;5029497;28;20033;-72
2023/08/19 03:40:51;;;;;;;33.03;24.38;;;;;;;-146.27;97.78;80211.25;5028320;28;20021;-72
2023/08/19 03:43:17;;;;;;;29.60;23.23;;;;;;;-146.27;97.45;80231.31;5030028;28;20030;-72
2023/08/19 03:45:42;;;;;;;23.58;17.95;;;;;;;-146.27;97.43;80199.22;5029655;28;20029;-73
2023/08/19 03:48:07;;;;;;;22.77;19.38;;;;;;;-146.27;97.41;80195.19;5027468;28;20109;-73
2023/08/19 03:50:33;;;;;;;36.80;23.77;;;;;;;-146.27;97.58;80199.22;5028158;28;20477;-73
2023/08/19 03:52:58;;;;;;;28.52;23.35;;;;;;;-146.27;97.68;80235.34;5028315;28;20100;-73
2023/08/19 03:55:24;;;;;;;33.35;24.38;;;;;;;-146.27;98.02;80277.50;5029113;28;20068;-73
2023/08/19 03:57:51;;;;;;;33.03;24.33;;;;;;;-146.27;97.83;80185.16;5027940;28;20151;-72
2023/08/19 04:00:16;;;;;;;28.33;20.02;;;;;;;-146.27;97.69;80211.25;5029014;28;20025;-71
2023/08/19 04:02:42;;;;;;;27.08;21.52;;;;;;;-146.27;97.61;80225.31;5024024;28;20013;-71
2023/08/19 04:05:10;;;;;;;23.20;18.25;;;;;;;-146.27;97.40;80279.50;5028365;28;20025;-71
2023/08/19 04:07:35;;;;;;;31.67;22.95;;;;;;;-146.27;97.47;80239.34;5028884;28;20463;-73
2023/08/19 04:10:00;;;;;;;28.67;21.17;;;;;;;-146.27;97.66;80219.28;5029152;28;20025;-73
2023/08/19 04:12:26;;;;;;;31.83;22.30;;;;;;;-146.27;97.79;80283.53;5026353;28;20029;-72
2023/08/19 04:14:52;;;;;;;28.80;21.10;;;;;;;-146.27;97.78;80243.38;5029224;28;20032;-72
2023/08/19 04:17:18;;;;;;;25.10;19.70;;;;;;;-146.27;97.56;80223.28;5028845;28;20489;-72
2023/08/19 04:19:44;;;;;;;33.42;22.02;;;;;;;-146.27;97.57;80229.31;5027561;28;20033;-72
2023/08/19 04:22:14;;;;;;;28.35;21.42;;;;;;;-146.27;97.71;80227.31;5027482;28;20025;-72
2023/08/19 04:24:40;;;;;;;29.10;21.90;;;;;;;-146.27;97.59;80215.25;5028981;28;20238;-72
2023/08/19 04:27:05;;;;;;;33.20;22.20;;;;;;;-146.27;97.54;80251.41;5027877;28;20159;-72
2023/08/19 04:29:34;;;;;;;28.23;22.23;;;;;;;-146.27;97.70;80217.28;5027495;28;20405;-72
2023/08/19 04:32:03;;;;;;;27.77;22.48;;;;;;;-146.27;97.91;80247.38;5026224;28;20071;-72
2023/08/19 04:34:29;;;;;;;27.73;21.58;;;;;;;-146.27;97.66;80255.41;5025684;28;20120;-72
2023/08/19 04:36:55;;;;;;;26.13;21.02;;;;;;;-146.27;97.58;80275.50;5029096;28;20029;-73
2023/08/19 04:39:21;;;;;;;31.40;23.35;;;;;;;-146.27;97.32;80249.41;5029184;28;20061;-71
2023/08/19 04:41:47;;;;;;;29.05;21.45;;;;;;;-146.27;97.71;80213.25;5026397;28;20585;-72
2023/08/19 04:44:12;;;;;;;29.75;22.65;;;;;;;-146.27;97.45;80219.28;5029106;28;20036;-73
2023/08/19 04:46:55;;;;;;;30.48;21.73;;;;;;;-146.27;97.41;80221.28;5028916;28;20788;-73
2023/08/19 04:49:21;;;;;;;;;;;;;;;-146.27;97.37;80197.19;5028701;28;20063;-72
2023/08/19 04:51:46;;;;;;;31.45;21.15;;;;;;;-146.27;97.39;80287.53;5024205;28;20003;-72
2023/08/19 04:54:12;;;;;;;32.03;22.17;;;;;;;-146.27;97.50;80219.28;5009637;28;20036;-71
2023/08/19 04:56:37;;;;;;;31.65;22.10;;;;;;;-146.27;97.62;80227.31;5027239;28;20031;-72
2023/08/19 04:59:02;;;;;;;31.15;21.65;;;;;;;-146.27;97.59;80249.41;5027591;28;20481;-73
2023/08/19 05:01:28;;;;;;;28.42;18.70;;;;;;;-146.27;97.56;80257.44;5027857;28;20449;-73
2023/08/19 05:03:54;;;;;;;29.00;21.45;;;;;;;-146.27;97.51;80211.25;5027832;28;20121;-72
2023/08/19 05:06:19;;;;;;;32.53;21.80;;;;;;;-146.27;97.14;80191.16;5031182;28;20576;-72
2023/08/19 05:08:45;;;;;;;26.95;20.23;;;;;;;-146.27;97.18;80291.56;5032014;28;20539;-71
2023/08/19 05:11:10;;;;;;;27.40;19.52;;;;;;;-146.27;97.34;80231.31;5031201;28;20029;-71
2023/08/19 05:13:36;;;;;;;22.15;17.95;;;;;;;-146.27;97.24;80207.22;5031087;28;20037;-72
2023/08/19 05:16:02;;;;;;;23.10;18.25;;;;;;;-146.27;97.57;80221.28;5032296;28;20039;-70
2023/08/19 05:18:28;;;;;;;29.52;19.80;;;;;;;-146.27;98.07;80215.25;5032384;28;20485;-71
2023/08/19 05:20:53;;;;;;;27.00;21.30;;;;;;;-146.27;98.36;80215.25;5031387;28;20032;-71
2023/08/19 05:23:18;;;;;;;27.67;20.38;;;;;;;-146.27;98.89;80255.41;5028924;28;20132;-71
2023/08/19 05:25:44;;;;;;;27.73;20.58;;;;;;;-146.27;98.94;80257.44;5031802;28;20055;-72
2023/08/19 05:28:10;;;;;;;29.52;19.42;;;;;;;-146.27;99.07;80295.56;5030314;28;20033;-71
2023/08/19 05:30:36;;;;;;;27.13;20.45;;;;;;;-146.27;99.30;80275.50;5032692;28;20492;-71
2023/08/19 05:33:01;;;;;;;29.02;20.83;;;;;;;-146.27;99.72;80271.47;5030708;28;20025;-71
2023/08/19 05:35:27;;;;;;;25.88;20.33;;;;;;;-146.27;99.59;80295.56;5029533;28;20033;-71
2023/08/19 05:37:52;;;;;;;31.33;20.77;;;;;;;-146.27;99.75;80247.38;5029234;28;20041;-71
2023/08/19 05:40:17;;;;;;;25.73;19.67;;;;;;;-146.27;99.87;80389.94;5032264;28;20103;-71
2023/08/19 05:42:43;;;;;;;25.92;19.77;;;;;;;-146.27;100.00;80291.56;5029843;28;20076;-70
2023/08/19 05:45:08;;;;;;;30.35;20.70;;;;;;;-146.27;100.00;80255.41;5028826;28;20033;-70
2023/08/19 05:47:34;;;;;;;26.58;19.92;;;;;;;-146.27;99.98;80241.38;5030231;28;20036;-69
2023/08/19 05:49:59;;;;;;;27.08;19.58;;;;;;;-146.27;100.00;80195.19;5031298;28;20406;-72
2023/08/19 05:52:24;;;;;;;28.88;20.55;;;;;;;-146.27;100.00;80235.34;5029181;28;20367;-72
2023/08/19 05:54:50;;;;;;;20.52;17.67;;;;;;;-146.27;99.95;80183.13;5030584;28;20056;-71
2023/08/19 05:57:16;;;;;;;24.05;18.85;;;;;;;-146.27;99.56;80185.16;5028750;28;20052;-71
2023/08/19 05:59:41;;;;;;;25.27;17.65;;;;;;;-146.27;99.34;80147.00;5029911;28;20029;-72
2023/08/19 06:02:07;;;;;;;20.38;17.30;;;;;;;-146.27;99.10;80145.00;5027191;28;20040;-72
2023/08/19 06:04:32;;;;;;;25.63;17.88;;;;;;;-146.27;98.79;80147.00;5030730;28;20037;-71
2023/08/19 06:06:57;;;;;;;23.63;16.40;;;;;;;-146.27;98.71;80092.78;5027175;28;20045;-71
2023/08/19 06:09:23;;;;;;;23.70;15.63;;;;;;;-146.27;98.54;80122.91;5022602;28;20365;-72
2023/08/19 06:11:51;;;;;;;17.00;14.93;;;;;;;-146.27;98.46;80046.63;5026174;28;20036;-71
2023/08/19 06:14:17;;;;;;;18.75;14.43;;;;;;;-146.27;98.28;80022.53;5025925;28;20113;-70
2023/08/19 06:16:43;;;;;;;21.42;15.65;;;;;;;-146.27;97.70;79998.44;5028982;28;20025;-72
2023/08/19 06:19:09;;;;;;;22.17;14.85;;;;;;;-146.27;97.35;80022.53;5030501;28;20100;-73
2023/08/19 06:21:34;;;;;;;22.05;14.85;;;;;;;-146.27;97.34;79974.34;5031384;28;20104;-72
2023/08/19 06:23:59;;;;;;;20.48;14.35;;;;;;;-146.27;96.82;79982.38;5027906;28;20740;-73
2023/08/19 06:26:26;;;;;;;17.38;13.57;;;;;;;-146.27;96.52;79964.31;5019728;28;20037;-74
2023/08/19 06:28:51;;;;;;;21.95;14.07;;;;;;;-146.27;96.25;79958.28;5027002;28;20041;-69
2023/08/19 06:31:17;;;;;;;16.45;13.88;;;;;;;-146.27;96.24;79942.22;5029449;28;20030;-71
2023/08/19 06:33:42;;;;;;;16.33;12.88;;;;;;;-146.27;95.91;79932.19;5026096;28;20104;-71
2023/08/19 06:36:10;;;;;;;19.35;14.02;;;;;;;-146.27;95.89;79898.06;5024638;28;20037;-73
2023/08/19 06:38:39;;;;;;;17.38;12.93;;;;;;;-146.27;95.71;79888.03;5028259;28;20031;-72
2023/08/19 06:41:09;;;;;;;16.40;12.75;;;;;;;-146.27;95.83;79873.97;5024250;28;20061;-72
2023/08/19 06:43:36;;;;;;;22.73;14.02;;;;;;;-146.27;95.98;79898.06;5023950;28;20551;-72
2023/08/19 06:46:04;;;;;;;16.15;13.95;;;;;;;-146.27;96.35;79900.06;5043375;28;20469;-69
2023/08/19 06:48:31;;;;;;;18.92;12.73;;;;;;;-146.27;96.29;79886.00;5027487;28;20445;-73
2023/08/19 06:50:57;;;;;;;16.85;13.48;;;;;;;-146.27;96.63;79914.13;5026107;28;20037;-71
2023/08/19 06:53:22;;;;;;;16.10;13.35;;;;;;;-146.27;97.13;79918.13;5024403;28;20040;-72
2023/08/19 06:56:00;;;;;;;18.17;13.70;;;;;;;-146.27;97.54;79894.03;5023448;28;20111;-73
2023/08/19 06:58:29;;;;;;;17.60;12.80;;;;;;;-146.27;97.78;79934.19;5028535;28;20037;-72
2023/08/19 07:00:59;;;;;;;19.77;13.13;;;;;;;-146.27;98.01;79952.25;5028862;28;20704;-71
2023/08/19 07:03:27;;;;;;;16.90;12.98;;;;;;;-146.27;98.29;79926.16;5028930;28;20021;-70
2023/08/19 07:05:54;;;;;;;15.90;12.65;;;;;;;-146.27;98.02;79902.06;5027706;28;20113;-72
2023/08/19 07:08:20;;;;;;;16.23;12.68;;;;;;;-146.27;97.94;79926.16;5030206;28;20056;-71
2023/08/19 07:10:46;;;;;;;21.77;11.82;;;;;;;-146.27;98.04;79865.94;5028208;28;20022;-72
2023/08/19 07:13:11;;;;;;;24.33;11.73;;;;;;;-146.27;98.10;79894.03;5029414;28;20021;-71
2023/08/19 07:15:42;;;;;;;18.33;12.25;;;;;;;-146.27;97.11;79922.16;5026000;28;20440;-70
2023/08/19 07:18:12;;;;;;;18.33;11.25;;;;;;;-146.27;95.97;79880.00;5026827;28;20092;-71
2023/08/19 07:20:38;;;;;;;16.38;10.93;;;;;;;-146.27;95.81;79829.81;5025085;28;20562;-71
2023/08/19 07:23:07;;;;;;;15.93;11.25;;;;;;;-146.27;95.84;79793.66;5029765;28;20102;-71
2023/08/19 07:25:33;;;;;;;19.55;11.68;;;;;;;-146.27;95.54;79805.72;5026888;28;20029;-72
2023/08/19 07:28:02;;;;;;;14.43;10.85;;;;;;;-146.27;95.37;79821.78;5021488;28;20322;-73
2023/08/19 07:30:28;;;;;;;17.25;11.75;;;;;;;-146.27;96.29;79789.66;5024821;28;20042;-71
2023/08/19 07:32:54;;;;;;;17.00;11.70;;;;;;;-146.27;95.84;79781.63;5028696;28;20022;-72
2023/08/19 07:35:19;;;;;;;21.13;12.75;;;;;;;-146.27;96.65;79785.63;5028198;28;20045;-71
2023/08/19 07:37:45;;;;;;;15.35;10.77;;;;;;;-146.27;96.54;79803.69;5029151;28;20025;-72
2023/08/19 07:40:11;;;;;;;17.55;11.25;;;;;;;-146.27;97.08;79833.81;5026600;28;20472;-71
2023/08/19 07:42:37;;;;;;;16.42;11.25;;;;;;;-146.27;96.60;79817.75;5027596;28;20496;-72
2023/08/19 07:45:02;;;;;;;18.90;11.65;;;;;;;-146.27;96.46;79845.88;5027285;28;20033;-71
2023/08/19 07:47:28;;;;;;;20.67;11.13;;;;;;;-146.27;96.18;79813.75;5029193;28;20029;-72
2023/08/19 07:49:53;;;;;;;15.48;10.75;;;;;;;-146.27;96.38;79791.66;5027613;28;20423;-71
2023/08/19 07:52:18;;;;;;;13.60;9.68;;;;;;;-146.27;95.88;79751.50;5025335;28;20063;-72
2023/08/19 07:54:44;;;;;;;13.82;10.95;;;;;;;-146.27;95.91;79729.44;5023441;28;20052;-71
2023/08/19 07:57:09;;;;;;;19.83;11.35;;;;;;;-146.27;95.78;79715.38;5027753;28;20120;-71
2023/08/19 07:59:34;;;;;;;17.48;10.63;;;;;;;-146.27;95.50;79713.38;5027165;28;20021;-70
2023/08/19 08:02:00;;;;;;;18.10;12.25;;;;;;;-146.27;95.32;79701.31;5022799;28;20029;-72
2023/08/19 08:04:25;;;;;;;18.40;10.95;;;;;;;-146.27;94.56;79717.38;5025842;28;20033;-71
2023/08/19 08:06:51;;;;;;;13.85;11.27;;;;;;;-146.27;94.46;79649.13;5011590;28;20065;-70
2023/08/19 08:09:17;;;;;;;17.88;11.50;;;;;;;-146.27;93.55;79697.31;5023084;28;20034;-71
2023/08/19 08:11:45;;;;;;;13.40;10.50;;;;;;;-146.27;93.28;79705.34;5023442;28;20033;-71
2023/08/19 08:14:10;;;;;;;15.35;9.32;;;;;;;-146.27;93.40;79578.88;5026049;28;20025;-71
2023/08/19 08:16:35;;;;;;;15.95;11.18;;;;;;;-146.27;92.20;79528.69;5029029;28;20078;-71
2023/08/19 08:19:01;;;;;;;14.45;10.07;;;;;;;-146.27;92.01;79448.38;5028121;28;20193;-71
2023/08/19 08:21:26;;;;;;;14.93;9.30;;;;;;;-146.27;89.65;79410.25;5027882;28;20032;-71
2023/08/19 08:23:54;;;;;;;13.90;9.23;;;;;;;-146.27;87.56;79480.50;5025734;28;20021;-68
2023/08/19 08:26:20;;;;;;;10.50;8.32;;;;;;;-146.27;87.44;79504.59;5024187;28;20029;-67
2023/08/19 08:28:45;;;;;;;12.80;7.20;;;;;;;-146.27;87.33;79354.03;5024471;28;20445;-69
2023/08/19 08:31:10;;;;;;;11.70;8.18;;;;;;;-146.27;86.31;79404.22;5022053;28;20026;-67
2023/08/19 08:33:36;;;;;;;10.85;5.78;;;;;;;-146.27;86.25;79412.25;5027875;28;20473;-69
2023/08/19 08:36:01;;;;;;;10.73;6.55;;;;;;;-146.27;84.96;79466.47;5026455;28;20025;-69
2023/08/19 08:38:27;;;;;;;12.40;6.95;;;;;;;-146.27;84.89;79366.09;5026401;28;20029;-72
2023/08/19 08:40:52;;;;;;;9.65;6.63;;;;;;;-146.27;85.46;79408.25;5025807;28;20025;-72
2023/08/19 08:43:18;;;;;;;12.32;5.53;;;;;;;-146.27;85.08;79412.25;5028151;28;20045;-72
2023/08/19 08:45:44;;;;;;;5.65;4.30;;;;;;;-146.27;82.47;79494.56;5026217;28;20044;-70
2023/08/19 08:48:11;;;;;;;8.13;4.72;;;;;;;-146.27;82.81;79504.59;5025882;28;20026;-71
2023/08/19 08:50:36;;;;;;;6.45;4.05;;;;;;;-146.27;82.89;79504.59;5026621;28;20512;-72
2023/08/19 08:53:02;;;;;;;9.65;4.57;;;;;;;-146.27;82.56;79536.72;5026729;28;20045;-73
2023/08/19 08:55:27;;;;;;;5.70;4.20;;;;;;;-146.27;81.32;79456.41;5026439;28;20093;-72
2023/08/19 08:57:54;;;;;;;9.75;3.95;;;;;;;-146.27;78.27;79428.31;5026785;28;20057;-73
2023/08/19 09:00:19;;;;;;;3.35;2.97;;;;;;;-146.27;75.16;79484.53;5028297;28;20025;-72
2023/08/19 09:02:46;;;;;;;6.53;3.25;;;;;;;-146.27;75.56;79384.16;5026311;28;20055;-73
2023/08/19 09:05:12;;;;;;;3.83;2.85;;;;;;;-146.27;74.93;79444.38;5019479;28;20022;-71
2023/08/19 09:07:39;;;;;;;6.07;3.47;;;;;;;-146.27;75.82;79384.16;5028069;28;20041;-73
2023/08/19 09:10:12;;;;;;;5.47;3.40;;;;;;;-146.27;77.37;79494.56;5020655;28;20029;-73
2023/08/19 09:12:42;;;;;;;4.25;3.33;;;;;;;-146.27;77.89;79470.47;5019403;28;20381;-72
2023/08/19 09:15:11;;;;;;;5.43;3.40;;;;;;;-146.27;77.89;79396.19;5024201;28;20029;-72
2023/08/19 09:17:37;;;;;;;6.25;3.65;;;;;;;-146.27;78.02;79388.16;5025946;28;20473;-73
2023/08/19 09:20:06;;;;;;;5.30;3.33;;;;;;;-146.27;77.80;79404.22;5027456;28;20551;-68
2023/08/19 09:22:32;;;;;;;5.68;3.10;;;;;;;-146.27;77.37;79283.78;5016232;28;20192;-68
2023/08/19 09:24:58;;;;;;;6.90;3.67;;;;;;;-146.27;75.47;79277.78;5025510;28;20526;-70
2023/08/19 09:27:28;;;;;;;5.32;3.17;;;;;;;-146.27;75.66;79372.13;5017412;28;20505;-71
2023/08/19 09:29:53;;;;;;;4.63;2.95;;;;;;;-146.27;75.81;79247.66;5023995;28;20037;-70
2023/08/19 09:32:39;;;;;;;5.05;3.25;;;;;;;-146.27;75.17;79243.66;5022499;28;20501;-71
2023/08/19 09:35:04;;;;;;;5.68;3.00;;;;;;;-146.27;74.79;79193.47;5023651;28;20481;-68
2023/08/19 09:37:31;;;;;;;5.18;2.95;;;;;;;-146.27;74.60;79400.22;5025014;28;20113;-70
2023/08/19 09:39:57;;;;;;;6.13;3.40;;;;;;;-146.27;74.51;79486.53;5025280;28;20104;-71
2023/08/19 09:42:22;;;;;;;5.18;3.38;;;;;;;-146.27;74.69;79536.72;5025042;28;20104;-71
2023/08/19 09:44:48;;;;;;;5.65;2.70;;;;;;;-146.27;75.13;79416.28;5026939;28;20025;-70
2023/08/19 09:47:13;;;;;;;7.28;3.47;;;;;;;-146.27;73.98;79348.03;5023120;28;20429;-70
2023/08/19 09:49:38;;;;;;;6.32;3.28;;;;;;;-146.27;74.19;79167.38;5019351;28;20280;-70
2023/08/19 09:52:04;;;;;;;4.93;3.47;;;;;;;-146.27;73.35;79171.38;5026520;28;20181;-69
2023/08/19 09:54:30;;;;;;;7.00;3.47;;;;;;;-146.27;73.29;79263.72;5032240;28;20214;-68
2023/08/19 09:56:57;;;;;;;5.05;3.10;;;;;;;-146.27;73.90;79233.63;5028703;28;20120;-69
2023/08/19 09:59:26;;;;;;;5.88;3.17;;;;;;;-146.27;74.14;79378.13;5028130;28;20067;-68
2023/08/19 10:01:53;;;;;;;4.63;3.35;;;;;;;-146.27;74.27;79434.34;5029751;28;20801;-69
2023/08/19 10:04:19;;;;;;;5.85;3.50;;;;;;;-146.27;74.43;79510.63;5028190;28;20029;-69
2023/08/19 10:06:48;;;;;;;6.60;3.42;;;;;;;-146.27;75.25;79478.50;5030139;28;20049;-70
2023/08/19 10:09:17;;;;;;;8.45;3.90;;;;;;;-146.27;75.40;79588.91;5028273;28;20473;-70
2023/08/19 10:11:45;;;;;;;7.72;3.88;;;;;;;-146.27;76.13;79613.00;5017757;28;20026;-68
2023/08/19 10:14:11;;;;;;;8.07;4.20;;;;;;;-146.27;76.60;79625.03;5028028;28;20516;-69
2023/08/19 10:16:44;;;;;;;7.05;4.40;;;;;;;-146.27;76.86;79560.81;5027517;28;20262;-68
2023/08/19 10:19:13;;;;;;;6.70;3.95;;;;;;;-146.27;76.98;79424.31;5022474;28;20037;-69
2023/08/19 10:21:40;;;;;;;5.28;3.90;;;;;;;-146.27;76.35;79408.25;5024852;28;20030;-69
2023/08/19 10:24:07;;;;;;;7.03;4.60;;;;;;;-146.27;76.50;79408.25;5027948;28;20029;-70
2023/08/19 10:26:32;;;;;;;7.03;4.13;;;;;;;-146.27;76.90;79396.19;5029842;28;20561;-69
2023/08/19 10:29:06;;;;;;;6.70;4.95;;;;;;;-146.27;78.18;79530.69;5028904;28;20120;-68
2023/08/19 10:31:32;;;;;;;7.25;4.80;;;;;;;-146.27;78.34;79516.63;5019183;28;20025;-68
2023/08/19 10:33:57;;;;;;;7.78;4.82;;;;;;;-146.27;78.79;79520.66;5024871;28;20032;-70
2023/08/19 10:36:29;;;;;;;7.82;5.43;;;;;;;-146.27;78.46;79492.56;5023446;28;20415;-69
2023/08/19 10:38:58;;;;;;;8.48;5.93;;;;;;;-146.27;79.34;79418.28;5023737;28;20112;-70
2023/08/19 10:41:33;;;;;;;6.40;5.53;;;;;;;-146.27;78.25;79327.94;5030063;28;20408;-70
2023/08/19 10:44:12;;;;;;;10.43;5.82;;;;;;;-146.27;78.49;79416.28;5027035;28;20025;-70
2023/08/19 10:46:46;;;;;;;8.63;5.95;;;;;;;-146.27;78.40;79255.69;5022759;28;20048;-72
2023/08/19 10:49:18;;;;;;;7.00;4.90;;;;;;;-146.27;77.37;79356.06;5015225;28;20014;-70
2023/08/19 10:51:47;;;;;;;11.57;5.82;;;;;;;-146.27;77.09;79253.69;5030004;28;20470;-70
2023/08/19 10:54:13;;;;;;;8.70;5.05;;;;;;;-146.27;77.57;79338.00;5014254;28;20235;-69
2023/08/19 10:57:11;;;;;;;7.68;4.75;;;;;;;-146.27;78.21;79376.13;5007738;28;20087;-73
2023/08/19 10:59:39;;;;;;;9.30;4.88;;;;;;;-146.27;78.70;79564.81;4989380;28;20179;-70
2023/08/19 11:02:05;;;;;;;8.30;4.82;;;;;;;-146.27;78.08;79460.44;5023884;28;20048;-73